sensor_id;sensor_type;location;lat;lon;timestamp;temperature;humidity
62583;DHT22;48641;51.676;5.808;2023-07-31T00:00:48;23.00;58.20
62583;DHT22;48641;51.676;5.808;2023-07-31T00:03:14;23.00;58.20
62583;DHT22;48641;51.676;5.808;2023-07-31T00:05:39;23.00;58.20
62583;DHT22;48641;51.676;5.808;2023-07-31T00:08:05;23.00;58.20
62583;DHT22;48641;51.676;5.808;2023-07-31T00:10:31;23.00;58.20
62583;DHT22;48641;51.676;5.808;2023-07-31T00:12:56;23.00;58.20
62583;DHT22;48641;51.676;5.808;2023-07-31T00:15:22;23.00;58.20
62583;DHT22;48641;51.676;5.808;2023-07-31T00:17:48;23.00;58.20
62583;DHT22;48641;51.676;5.808;2023-07-31T00:20:15;23.00;58.20
62583;DHT22;48641;51.676;5.808;2023-07-31T00:22:41;23.00;58.30
62583;DHT22;48641;51.676;5.808;2023-07-31T00:25:07;22.90;58.20
62583;DHT22;48641;51.676;5.808;2023-07-31T00:27:32;22.90;58.30
62583;DHT22;48641;51.676;5.808;2023-07-31T00:29:58;22.90;58.30
62583;DHT22;48641;51.676;5.808;2023-07-31T00:32:24;22.90;58.30
62583;DHT22;48641;51.676;5.808;2023-07-31T00:34:49;23.00;58.30
62583;DHT22;48641;51.676;5.808;2023-07-31T00:37:15;23.00;58.30
62583;DHT22;48641;51.676;5.808;2023-07-31T00:39:41;23.00;58.20
62583;DHT22;48641;51.676;5.808;2023-07-31T00:42:07;23.00;58.20
62583;DHT22;48641;51.676;5.808;2023-07-31T00:44:33;23.00;59.20
62583;DHT22;48641;51.676;5.808;2023-07-31T00:46:59;23.00;58.20
62583;DHT22;48641;51.676;5.808;2023-07-31T00:49:26;23.00;58.20
62583;DHT22;48641;51.676;5.808;2023-07-31T00:51:52;23.00;58.20
62583;DHT22;48641;51.676;5.808;2023-07-31T00:54:18;23.00;58.20
62583;DHT22;48641;51.676;5.808;2023-07-31T00:56:45;22.90;58.20
62583;DHT22;48641;51.676;5.808;2023-07-31T00:59:12;22.90;58.30
62583;DHT22;48641;51.676;5.808;2023-07-31T01:01:37;22.90;58.30
62583;DHT22;48641;51.676;5.808;2023-07-31T01:04:04;22.90;58.30
62583;DHT22;48641;51.676;5.808;2023-07-31T01:09:14;22.90;58.30
62583;DHT22;48641;51.676;5.808;2023-07-31T01:11:50;22.90;58.40
62583;DHT22;48641;51.676;5.808;2023-07-31T01:14:17;22.90;58.40
62583;DHT22;48641;51.676;5.808;2023-07-31T01:16:43;22.90;58.30
62583;DHT22;48641;51.676;5.808;2023-07-31T01:19:09;22.90;58.30
62583;DHT22;48641;51.676;5.808;2023-07-31T01:24:21;22.90;58.30
62583;DHT22;48641;51.676;5.808;2023-07-31T01:26:55;22.90;58.10
62583;DHT22;48641;51.676;5.808;2023-07-31T01:29:49;22.90;58.30
62583;DHT22;48641;51.676;5.808;2023-07-31T01:32:18;22.90;58.20
62583;DHT22;48641;51.676;5.808;2023-07-31T01:34:45;22.90;58.40
62583;DHT22;48641;51.676;5.808;2023-07-31T01:37:11;22.80;58.40
62583;DHT22;48641;51.676;5.808;2023-07-31T01:39:37;22.80;58.40
62583;DHT22;48641;51.676;5.808;2023-07-31T01:42:02;22.80;58.50
62583;DHT22;48641;51.676;5.808;2023-07-31T01:44:28;22.80;58.50
62583;DHT22;48641;51.676;5.808;2023-07-31T01:46:54;22.80;58.50
62583;DHT22;48641;51.676;5.808;2023-07-31T01:49:19;22.80;58.60
62583;DHT22;48641;51.676;5.808;2023-07-31T01:51:45;22.80;58.50
62583;DHT22;48641;51.676;5.808;2023-07-31T01:54:10;22.80;58.40
62583;DHT22;48641;51.676;5.808;2023-07-31T01:56:36;22.90;58.40
62583;DHT22;48641;51.676;5.808;2023-07-31T01:59:02;22.90;58.40
62583;DHT22;48641;51.676;5.808;2023-07-31T02:01:28;22.90;58.40
62583;DHT22;48641;51.676;5.808;2023-07-31T02:03:53;22.90;58.30
62583;DHT22;48641;51.676;5.808;2023-07-31T02:06:19;22.90;58.30
62583;DHT22;48641;51.676;5.808;2023-07-31T02:08:45;22.90;58.40
62583;DHT22;48641;51.676;5.808;2023-07-31T02:11:10;22.90;58.30
62583;DHT22;48641;51.676;5.808;2023-07-31T02:13:36;22.80;58.30
62583;DHT22;48641;51.676;5.808;2023-07-31T02:16:02;22.80;58.40
62583;DHT22;48641;51.676;5.808;2023-07-31T02:18:27;22.80;58.40
62583;DHT22;48641;51.676;5.808;2023-07-31T02:20:53;22.80;58.40
62583;DHT22;48641;51.676;5.808;2023-07-31T02:23:19;22.80;58.40
62583;DHT22;48641;51.676;5.808;2023-07-31T02:25:45;22.80;58.40
62583;DHT22;48641;51.676;5.808;2023-07-31T02:28:11;22.80;58.40
62583;DHT22;48641;51.676;5.808;2023-07-31T02:30:36;22.80;58.40
62583;DHT22;48641;51.676;5.808;2023-07-31T02:33:02;22.80;58.40
62583;DHT22;48641;51.676;5.808;2023-07-31T02:35:28;22.80;58.40
62583;DHT22;48641;51.676;5.808;2023-07-31T02:37:53;22.80;58.40
62583;DHT22;48641;51.676;5.808;2023-07-31T02:40:19;22.80;58.30
62583;DHT22;48641;51.676;5.808;2023-07-31T02:42:45;22.80;58.30
62583;DHT22;48641;51.676;5.808;2023-07-31T02:45:10;22.80;58.30
62583;DHT22;48641;51.676;5.808;2023-07-31T02:47:36;22.80;58.20
62583;DHT22;48641;51.676;5.808;2023-07-31T02:50:03;22.80;58.20
62583;DHT22;48641;51.676;5.808;2023-07-31T02:52:28;22.80;58.30
62583;DHT22;48641;51.676;5.808;2023-07-31T02:54:54;22.80;58.30
62583;DHT22;48641;51.676;5.808;2023-07-31T02:57:20;22.80;58.30
62583;DHT22;48641;51.676;5.808;2023-07-31T02:59:45;22.80;58.40
62583;DHT22;48641;51.676;5.808;2023-07-31T03:02:11;22.80;58.40
62583;DHT22;48641;51.676;5.808;2023-07-31T03:04:38;22.70;58.40
62583;DHT22;48641;51.676;5.808;2023-07-31T03:07:03;22.80;58.40
62583;DHT22;48641;51.676;5.808;2023-07-31T03:09:29;22.80;58.40
62583;DHT22;48641;51.676;5.808;2023-07-31T03:11:55;22.80;58.40
62583;DHT22;48641;51.676;5.808;2023-07-31T03:14:20;22.80;58.40
62583;DHT22;48641;51.676;5.808;2023-07-31T03:16:46;22.80;58.40
62583;DHT22;48641;51.676;5.808;2023-07-31T03:19:11;22.80;58.40
62583;DHT22;48641;51.676;5.808;2023-07-31T03:21:37;22.80;58.30
62583;DHT22;48641;51.676;5.808;2023-07-31T03:24:03;22.80;58.30
62583;DHT22;48641;51.676;5.808;2023-07-31T03:26:31;22.80;58.30
62583;DHT22;48641;51.676;5.808;2023-07-31T03:28:57;22.80;58.30
62583;DHT22;48641;51.676;5.808;2023-07-31T03:31:22;22.70;58.30
62583;DHT22;48641;51.676;5.808;2023-07-31T03:33:48;22.70;58.30
62583;DHT22;48641;51.676;5.808;2023-07-31T03:36:13;22.70;58.40
62583;DHT22;48641;51.676;5.808;2023-07-31T03:38:39;22.70;58.40
62583;DHT22;48641;51.676;5.808;2023-07-31T03:41:05;22.70;58.50
62583;DHT22;48641;51.676;5.808;2023-07-31T03:43:32;22.70;58.50
62583;DHT22;48641;51.676;5.808;2023-07-31T03:45:59;22.70;58.40
62583;DHT22;48641;51.676;5.808;2023-07-31T03:48:25;22.70;58.40
62583;DHT22;48641;51.676;5.808;2023-07-31T03:50:51;22.70;58.40
62583;DHT22;48641;51.676;5.808;2023-07-31T03:53:17;22.70;58.40
62583;DHT22;48641;51.676;5.808;2023-07-31T03:55:42;22.70;58.40
62583;DHT22;48641;51.676;5.808;2023-07-31T03:58:08;22.70;58.40
62583;DHT22;48641;51.676;5.808;2023-07-31T04:00:33;22.70;58.40
62583;DHT22;48641;51.676;5.808;2023-07-31T04:02:59;22.70;58.40
62583;DHT22;48641;51.676;5.808;2023-07-31T04:05:25;22.70;58.30
62583;DHT22;48641;51.676;5.808;2023-07-31T04:07:50;22.70;58.30
62583;DHT22;48641;51.676;5.808;2023-07-31T04:10:16;22.70;58.40
62583;DHT22;48641;51.676;5.808;2023-07-31T04:12:42;22.70;58.30
62583;DHT22;48641;51.676;5.808;2023-07-31T04:15:07;22.70;58.40
62583;DHT22;48641;51.676;5.808;2023-07-31T04:17:33;22.60;58.30
62583;DHT22;48641;51.676;5.808;2023-07-31T04:19:59;22.70;58.40
62583;DHT22;48641;51.676;5.808;2023-07-31T04:22:24;22.70;58.50
62583;DHT22;48641;51.676;5.808;2023-07-31T04:24:50;22.70;58.50
62583;DHT22;48641;51.676;5.808;2023-07-31T04:27:15;22.70;58.40
62583;DHT22;48641;51.676;5.808;2023-07-31T04:29:41;22.70;58.40
62583;DHT22;48641;51.676;5.808;2023-07-31T04:32:08;22.60;58.30
62583;DHT22;48641;51.676;5.808;2023-07-31T04:34:33;22.60;58.30
62583;DHT22;48641;51.676;5.808;2023-07-31T04:36:59;22.60;58.30
62583;DHT22;48641;51.676;5.808;2023-07-31T04:39:25;22.60;58.30
62583;DHT22;48641;51.676;5.808;2023-07-31T04:41:50;22.60;58.30
62583;DHT22;48641;51.676;5.808;2023-07-31T04:44:16;22.60;58.30
62583;DHT22;48641;51.676;5.808;2023-07-31T04:46:41;22.70;58.40
62583;DHT22;48641;51.676;5.808;2023-07-31T04:49:07;22.60;58.30
62583;DHT22;48641;51.676;5.808;2023-07-31T04:51:32;22.60;58.40
62583;DHT22;48641;51.676;5.808;2023-07-31T04:53:58;22.60;58.30
62583;DHT22;48641;51.676;5.808;2023-07-31T04:56:24;22.60;58.40
62583;DHT22;48641;51.676;5.808;2023-07-31T04:58:49;22.60;58.30
62583;DHT22;48641;51.676;5.808;2023-07-31T05:01:15;22.70;58.40
62583;DHT22;48641;51.676;5.808;2023-07-31T05:03:41;22.60;58.40
62583;DHT22;48641;51.676;5.808;2023-07-31T05:06:06;22.60;58.30
62583;DHT22;48641;51.676;5.808;2023-07-31T05:08:32;22.60;58.30
62583;DHT22;48641;51.676;5.808;2023-07-31T05:10:58;22.60;58.30
62583;DHT22;48641;51.676;5.808;2023-07-31T05:13:24;22.60;58.30
62583;DHT22;48641;51.676;5.808;2023-07-31T05:15:50;22.60;58.40
62583;DHT22;48641;51.676;5.808;2023-07-31T05:18:15;22.60;58.50
62583;DHT22;48641;51.676;5.808;2023-07-31T05:20:41;22.60;58.40
62583;DHT22;48641;51.676;5.808;2023-07-31T05:23:07;22.60;58.40
62583;DHT22;48641;51.676;5.808;2023-07-31T05:25:32;22.60;58.40
62583;DHT22;48641;51.676;5.808;2023-07-31T05:28:01;22.60;58.40
62583;DHT22;48641;51.676;5.808;2023-07-31T05:30:26;22.60;58.40
62583;DHT22;48641;51.676;5.808;2023-07-31T05:32:52;22.60;58.40
62583;DHT22;48641;51.676;5.808;2023-07-31T05:35:18;22.60;58.40
62583;DHT22;48641;51.676;5.808;2023-07-31T05:37:45;22.60;58.50
62583;DHT22;48641;51.676;5.808;2023-07-31T05:40:11;22.60;58.40
62583;DHT22;48641;51.676;5.808;2023-07-31T05:42:37;22.60;58.50
62583;DHT22;48641;51.676;5.808;2023-07-31T05:45:05;22.60;58.40
62583;DHT22;48641;51.676;5.808;2023-07-31T05:47:34;22.60;58.40
62583;DHT22;48641;51.676;5.808;2023-07-31T05:49:59;22.60;58.40
62583;DHT22;48641;51.676;5.808;2023-07-31T05:52:25;22.60;58.50
62583;DHT22;48641;51.676;5.808;2023-07-31T05:58:11;22.60;58.40
62583;DHT22;48641;51.676;5.808;2023-07-31T06:00:43;22.50;58.50
62583;DHT22;48641;51.676;5.808;2023-07-31T06:03:17;22.50;58.50
62583;DHT22;48641;51.676;5.808;2023-07-31T06:05:52;22.50;58.50
62583;DHT22;48641;51.676;5.808;2023-07-31T06:08:45;22.50;58.60
62583;DHT22;48641;51.676;5.808;2023-07-31T06:11:11;22.50;58.50
62583;DHT22;48641;51.676;5.808;2023-07-31T06:13:37;22.50;58.60
62583;DHT22;48641;51.676;5.808;2023-07-31T06:16:03;22.60;58.70
62583;DHT22;48641;51.676;5.808;2023-07-31T06:18:32;22.50;58.60
62583;DHT22;48641;51.676;5.808;2023-07-31T06:20:58;22.50;58.50
62583;DHT22;48641;51.676;5.808;2023-07-31T06:23:23;22.50;58.50
62583;DHT22;48641;51.676;5.808;2023-07-31T06:25:49;22.50;58.40
62583;DHT22;48641;51.676;5.808;2023-07-31T06:28:15;22.50;58.60
62583;DHT22;48641;51.676;5.808;2023-07-31T06:30:40;22.50;58.60
62583;DHT22;48641;51.676;5.808;2023-07-31T06:33:06;22.50;58.50
62583;DHT22;48641;51.676;5.808;2023-07-31T06:35:31;22.50;58.60
62583;DHT22;48641;51.676;5.808;2023-07-31T06:37:57;22.50;58.60
62583;DHT22;48641;51.676;5.808;2023-07-31T06:40:22;22.50;58.70
62583;DHT22;48641;51.676;5.808;2023-07-31T06:42:48;22.50;58.60
62583;DHT22;48641;51.676;5.808;2023-07-31T06:45:14;22.50;58.70
62583;DHT22;48641;51.676;5.808;2023-07-31T06:47:39;22.50;58.70
62583;DHT22;48641;51.676;5.808;2023-07-31T06:50:05;22.50;58.70
62583;DHT22;48641;51.676;5.808;2023-07-31T06:52:31;22.50;58.70
62583;DHT22;48641;51.676;5.808;2023-07-31T06:55:15;22.50;58.60
62583;DHT22;48641;51.676;5.808;2023-07-31T06:57:43;22.50;58.60
62583;DHT22;48641;51.676;5.808;2023-07-31T07:00:09;22.50;58.60
62583;DHT22;48641;51.676;5.808;2023-07-31T07:02:35;22.50;58.60
62583;DHT22;48641;51.676;5.808;2023-07-31T07:05:00;22.50;58.60
62583;DHT22;48641;51.676;5.808;2023-07-31T07:07:26;22.50;58.70
62583;DHT22;48641;51.676;5.808;2023-07-31T07:09:52;22.50;58.70
62583;DHT22;48641;51.676;5.808;2023-07-31T07:12:17;22.50;58.70
62583;DHT22;48641;51.676;5.808;2023-07-31T07:14:43;22.50;58.80
62583;DHT22;48641;51.676;5.808;2023-07-31T07:17:09;22.50;58.90
62583;DHT22;48641;51.676;5.808;2023-07-31T07:19:34;22.50;58.80
62583;DHT22;48641;51.676;5.808;2023-07-31T07:22:00;22.50;58.80
62583;DHT22;48641;51.676;5.808;2023-07-31T07:24:27;22.50;58.90
62583;DHT22;48641;51.676;5.808;2023-07-31T07:26:53;22.50;60.00
62583;DHT22;48641;51.676;5.808;2023-07-31T07:29:18;22.50;58.90
62583;DHT22;48641;51.676;5.808;2023-07-31T07:31:44;22.50;58.90
62583;DHT22;48641;51.676;5.808;2023-07-31T07:34:09;22.50;58.80
62583;DHT22;48641;51.676;5.808;2023-07-31T07:36:35;22.50;58.80
62583;DHT22;48641;51.676;5.808;2023-07-31T07:39:01;22.50;58.80
62583;DHT22;48641;51.676;5.808;2023-07-31T07:41:26;22.50;58.70
62583;DHT22;48641;51.676;5.808;2023-07-31T07:43:52;22.50;58.70
62583;DHT22;48641;51.676;5.808;2023-07-31T07:46:17;22.50;58.80
62583;DHT22;48641;51.676;5.808;2023-07-31T07:48:43;22.50;58.80
62583;DHT22;48641;51.676;5.808;2023-07-31T07:51:08;22.40;58.70
62583;DHT22;48641;51.676;5.808;2023-07-31T07:53:34;22.50;58.80
62583;DHT22;48641;51.676;5.808;2023-07-31T07:56:00;22.50;58.90
62583;DHT22;48641;51.676;5.808;2023-07-31T07:58:25;22.40;58.80
62583;DHT22;48641;51.676;5.808;2023-07-31T08:00:51;22.40;58.90
62583;DHT22;48641;51.676;5.808;2023-07-31T08:03:17;22.40;59.00
62583;DHT22;48641;51.676;5.808;2023-07-31T08:05:44;22.40;59.00
62583;DHT22;48641;51.676;5.808;2023-07-31T08:08:17;22.40;59.00
62583;DHT22;48641;51.676;5.808;2023-07-31T08:10:43;22.50;59.10
62583;DHT22;48641;51.676;5.808;2023-07-31T08:13:13;22.40;59.00
62583;DHT22;48641;51.676;5.808;2023-07-31T08:15:41;22.50;59.10
62583;DHT22;48641;51.676;5.808;2023-07-31T08:18:07;22.50;59.10
62583;DHT22;48641;51.676;5.808;2023-07-31T08:20:32;22.40;59.00
62583;DHT22;48641;51.676;5.808;2023-07-31T08:22:58;22.40;59.00
62583;DHT22;48641;51.676;5.808;2023-07-31T08:25:24;22.50;59.10
62583;DHT22;48641;51.676;5.808;2023-07-31T08:27:49;22.40;59.10
62583;DHT22;48641;51.676;5.808;2023-07-31T08:30:18;22.50;59.10
62583;DHT22;48641;51.676;5.808;2023-07-31T08:32:44;22.40;59.00
62583;DHT22;48641;51.676;5.808;2023-07-31T08:35:09;22.40;59.00
62583;DHT22;48641;51.676;5.808;2023-07-31T08:37:35;22.40;59.20
62583;DHT22;48641;51.676;5.808;2023-07-31T08:40:04;22.40;59.40
62583;DHT22;48641;51.676;5.808;2023-07-31T08:42:31;22.50;59.60
62583;DHT22;48641;51.676;5.808;2023-07-31T08:44:56;22.40;59.40
62583;DHT22;48641;51.676;5.808;2023-07-31T08:47:23;22.40;59.50
62583;DHT22;48641;51.676;5.808;2023-07-31T08:49:50;22.40;59.50
62583;DHT22;48641;51.676;5.808;2023-07-31T08:52:16;22.40;59.50
62583;DHT22;48641;51.676;5.808;2023-07-31T08:54:42;22.40;59.60
62583;DHT22;48641;51.676;5.808;2023-07-31T08:57:08;22.40;59.50
62583;DHT22;48641;51.676;5.808;2023-07-31T08:59:35;22.40;59.60
62583;DHT22;48641;51.676;5.808;2023-07-31T09:02:06;22.40;59.60
62583;DHT22;48641;51.676;5.808;2023-07-31T09:04:33;22.40;59.60
62583;DHT22;48641;51.676;5.808;2023-07-31T09:07:03;22.40;59.50
62583;DHT22;48641;51.676;5.808;2023-07-31T09:09:32;22.40;59.50
62583;DHT22;48641;51.676;5.808;2023-07-31T09:11:58;22.40;59.50
62583;DHT22;48641;51.676;5.808;2023-07-31T09:14:25;22.40;59.50
62583;DHT22;48641;51.676;5.808;2023-07-31T09:16:55;22.40;59.50
62583;DHT22;48641;51.676;5.808;2023-07-31T09:19:34;22.40;59.50
62583;DHT22;48641;51.676;5.808;2023-07-31T09:22:02;22.40;59.50
62583;DHT22;48641;51.676;5.808;2023-07-31T09:24:29;22.40;59.50
62583;DHT22;48641;51.676;5.808;2023-07-31T09:26:56;22.40;59.50
62583;DHT22;48641;51.676;5.808;2023-07-31T09:29:24;22.40;59.50
62583;DHT22;48641;51.676;5.808;2023-07-31T09:31:50;22.40;59.50
62583;DHT22;48641;51.676;5.808;2023-07-31T09:34:16;22.40;59.50
62583;DHT22;48641;51.676;5.808;2023-07-31T09:36:43;22.40;59.60
62583;DHT22;48641;51.676;5.808;2023-07-31T09:39:13;22.40;59.60
62583;DHT22;48641;51.676;5.808;2023-07-31T09:41:41;22.40;60.20
62583;DHT22;48641;51.676;5.808;2023-07-31T09:44:07;22.40;59.70
62583;DHT22;48641;51.676;5.808;2023-07-31T09:46:35;22.40;59.70
62583;DHT22;48641;51.676;5.808;2023-07-31T09:49:07;22.40;59.70
62583;DHT22;48641;51.676;5.808;2023-07-31T09:51:35;22.40;59.60
62583;DHT22;48641;51.676;5.808;2023-07-31T09:54:08;22.40;59.60
62583;DHT22;48641;51.676;5.808;2023-07-31T09:56:35;22.40;59.60
62583;DHT22;48641;51.676;5.808;2023-07-31T09:59:02;22.40;60.60
62583;DHT22;48641;51.676;5.808;2023-07-31T10:01:29;22.40;59.60
62583;DHT22;48641;51.676;5.808;2023-07-31T10:03:55;22.40;59.60
62583;DHT22;48641;51.676;5.808;2023-07-31T10:06:23;22.40;59.60
62583;DHT22;48641;51.676;5.808;2023-07-31T10:08:51;22.40;59.60
62583;DHT22;48641;51.676;5.808;2023-07-31T10:11:18;22.40;59.70
62583;DHT22;48641;51.676;5.808;2023-07-31T10:13:45;22.40;59.70
62583;DHT22;48641;51.676;5.808;2023-07-31T10:16:12;22.40;59.80
62583;DHT22;48641;51.676;5.808;2023-07-31T10:18:39;22.40;59.80
62583;DHT22;48641;51.676;5.808;2023-07-31T10:21:05;22.40;59.80
62583;DHT22;48641;51.676;5.808;2023-07-31T10:23:32;22.40;59.80
62583;DHT22;48641;51.676;5.808;2023-07-31T10:25:58;22.40;59.90
62583;DHT22;48641;51.676;5.808;2023-07-31T10:28:29;22.40;59.90
62583;DHT22;48641;51.676;5.808;2023-07-31T10:30:57;22.40;59.80
62583;DHT22;48641;51.676;5.808;2023-07-31T10:33:23;22.40;59.70
62583;DHT22;48641;51.676;5.808;2023-07-31T10:35:48;22.40;59.80
62583;DHT22;48641;51.676;5.808;2023-07-31T10:38:14;22.40;59.60
62583;DHT22;48641;51.676;5.808;2023-07-31T10:40:40;22.40;59.70
62583;DHT22;48641;51.676;5.808;2023-07-31T10:43:06;22.40;59.60
62583;DHT22;48641;51.676;5.808;2023-07-31T10:45:39;22.40;59.70
62583;DHT22;48641;51.676;5.808;2023-07-31T10:50:36;22.50;59.80
62583;DHT22;48641;51.676;5.808;2023-07-31T10:53:02;22.40;59.80
62583;DHT22;48641;51.676;5.808;2023-07-31T10:55:47;22.40;59.90
62583;DHT22;48641;51.676;5.808;2023-07-31T10:58:14;22.40;59.80
62583;DHT22;48641;51.676;5.808;2023-07-31T11:00:43;22.30;59.90
62583;DHT22;48641;51.676;5.808;2023-07-31T11:03:12;22.30;59.80
62583;DHT22;48641;51.676;5.808;2023-07-31T11:05:45;22.30;60.30
62583;DHT22;48641;51.676;5.808;2023-07-31T11:08:25;22.30;60.10
62583;DHT22;48641;51.676;5.808;2023-07-31T11:11:05;22.30;60.10
62583;DHT22;48641;51.676;5.808;2023-07-31T11:16:07;22.40;60.00
62583;DHT22;48641;51.676;5.808;2023-07-31T11:18:33;22.40;60.90
62583;DHT22;48641;51.676;5.808;2023-07-31T11:20:59;22.40;59.90
62583;DHT22;48641;51.676;5.808;2023-07-31T11:23:24;22.40;59.80
62583;DHT22;48641;51.676;5.808;2023-07-31T11:25:50;22.40;60.80
62583;DHT22;48641;51.676;5.808;2023-07-31T11:28:17;22.40;60.00
62583;DHT22;48641;51.676;5.808;2023-07-31T11:30:45;22.40;60.00
62583;DHT22;48641;51.676;5.808;2023-07-31T11:33:12;22.40;60.00
62583;DHT22;48641;51.676;5.808;2023-07-31T11:35:46;22.40;60.10
62583;DHT22;48641;51.676;5.808;2023-07-31T11:38:20;22.40;60.20
62583;DHT22;48641;51.676;5.808;2023-07-31T11:40:47;22.40;60.20
62583;DHT22;48641;51.676;5.808;2023-07-31T11:43:13;22.30;60.20
62583;DHT22;48641;51.676;5.808;2023-07-31T11:45:46;22.40;60.20
62583;DHT22;48641;51.676;5.808;2023-07-31T11:48:19;22.40;60.20
62583;DHT22;48641;51.676;5.808;2023-07-31T11:50:45;22.40;60.20
62583;DHT22;48641;51.676;5.808;2023-07-31T11:53:12;22.40;60.20
62583;DHT22;48641;51.676;5.808;2023-07-31T11:55:38;22.40;60.20
62583;DHT22;48641;51.676;5.808;2023-07-31T11:58:04;22.40;60.20
62583;DHT22;48641;51.676;5.808;2023-07-31T12:00:31;22.40;59.90
62583;DHT22;48641;51.676;5.808;2023-07-31T12:02:56;22.40;60.00
62583;DHT22;48641;51.676;5.808;2023-07-31T12:05:22;22.40;59.80
62583;DHT22;48641;51.676;5.808;2023-07-31T12:07:53;22.40;59.90
62583;DHT22;48641;51.676;5.808;2023-07-31T12:10:31;22.40;59.80
62583;DHT22;48641;51.676;5.808;2023-07-31T12:13:12;22.40;59.80
62583;DHT22;48641;51.676;5.808;2023-07-31T12:15:43;22.40;59.80
62583;DHT22;48641;51.676;5.808;2023-07-31T12:18:14;22.30;59.90
62583;DHT22;48641;51.676;5.808;2023-07-31T12:21:01;22.40;59.90
62583;DHT22;48641;51.676;5.808;2023-07-31T12:23:28;22.40;60.00
62583;DHT22;48641;51.676;5.808;2023-07-31T12:26:07;22.40;60.20
62583;DHT22;48641;51.676;5.808;2023-07-31T12:28:45;22.40;60.20
62583;DHT22;48641;51.676;5.808;2023-07-31T12:31:21;22.40;60.20
62583;DHT22;48641;51.676;5.808;2023-07-31T12:33:49;22.40;60.10
62583;DHT22;48641;51.676;5.808;2023-07-31T12:36:17;22.40;60.20
62583;DHT22;48641;51.676;5.808;2023-07-31T12:38:43;22.40;60.20
62583;DHT22;48641;51.676;5.808;2023-07-31T12:41:09;22.40;60.40
62583;DHT22;48641;51.676;5.808;2023-07-31T12:43:39;22.40;61.30
62583;DHT22;48641;51.676;5.808;2023-07-31T12:46:05;22.40;60.40
62583;DHT22;48641;51.676;5.808;2023-07-31T12:48:34;22.40;60.30
62583;DHT22;48641;51.676;5.808;2023-07-31T12:51:01;22.40;60.20
62583;DHT22;48641;51.676;5.808;2023-07-31T12:53:27;22.40;60.30
62583;DHT22;48641;51.676;5.808;2023-07-31T12:55:53;22.40;60.30
62583;DHT22;48641;51.676;5.808;2023-07-31T12:58:19;22.40;60.40
62583;DHT22;48641;51.676;5.808;2023-07-31T13:00:44;22.40;60.40
62583;DHT22;48641;51.676;5.808;2023-07-31T13:03:10;22.40;60.30
62583;DHT22;48641;51.676;5.808;2023-07-31T13:05:36;22.40;60.40
62583;DHT22;48641;51.676;5.808;2023-07-31T13:08:02;22.40;60.30
62583;DHT22;48641;51.676;5.808;2023-07-31T13:10:28;22.40;60.20
62583;DHT22;48641;51.676;5.808;2023-07-31T13:12:54;22.40;60.20
62583;DHT22;48641;51.676;5.808;2023-07-31T13:15:21;22.40;60.20
62583;DHT22;48641;51.676;5.808;2023-07-31T13:17:46;22.40;60.10
62583;DHT22;48641;51.676;5.808;2023-07-31T13:20:12;22.40;60.20
62583;DHT22;48641;51.676;5.808;2023-07-31T13:22:38;22.40;60.50
62583;DHT22;48641;51.676;5.808;2023-07-31T13:25:04;22.40;60.50
62583;DHT22;48641;51.676;5.808;2023-07-31T13:27:30;22.40;60.40
62583;DHT22;48641;51.676;5.808;2023-07-31T13:29:56;22.40;60.40
62583;DHT22;48641;51.676;5.808;2023-07-31T13:32:23;22.40;60.40
62583;DHT22;48641;51.676;5.808;2023-07-31T13:34:49;22.40;60.60
62583;DHT22;48641;51.676;5.808;2023-07-31T13:37:15;22.40;61.40
62583;DHT22;48641;51.676;5.808;2023-07-31T13:39:42;22.40;60.40
62583;DHT22;48641;51.676;5.808;2023-07-31T13:42:08;22.40;60.40
62583;DHT22;48641;51.676;5.808;2023-07-31T13:44:37;22.40;60.40
62583;DHT22;48641;51.676;5.808;2023-07-31T13:47:03;22.40;60.40
62583;DHT22;48641;51.676;5.808;2023-07-31T13:49:29;22.40;60.40
62583;DHT22;48641;51.676;5.808;2023-07-31T13:51:55;22.40;60.40
62583;DHT22;48641;51.676;5.808;2023-07-31T13:54:22;22.40;60.50
62583;DHT22;48641;51.676;5.808;2023-07-31T13:56:48;22.40;60.30
62583;DHT22;48641;51.676;5.808;2023-07-31T13:59:14;22.40;60.40
62583;DHT22;48641;51.676;5.808;2023-07-31T14:01:42;22.40;60.40
62583;DHT22;48641;51.676;5.808;2023-07-31T14:04:08;22.40;60.40
62583;DHT22;48641;51.676;5.808;2023-07-31T14:06:33;22.40;60.50
62583;DHT22;48641;51.676;5.808;2023-07-31T14:08:59;22.40;60.60
62583;DHT22;48641;51.676;5.808;2023-07-31T14:11:26;22.40;60.80
62583;DHT22;48641;51.676;5.808;2023-07-31T14:13:51;22.40;60.80
62583;DHT22;48641;51.676;5.808;2023-07-31T14:16:18;22.40;60.80
62583;DHT22;48641;51.676;5.808;2023-07-31T14:18:44;22.40;60.80
62583;DHT22;48641;51.676;5.808;2023-07-31T14:21:11;22.40;60.70
62583;DHT22;48641;51.676;5.808;2023-07-31T14:23:37;22.50;60.70
62583;DHT22;48641;51.676;5.808;2023-07-31T14:26:03;22.40;60.60
62583;DHT22;48641;51.676;5.808;2023-07-31T14:28:28;22.40;60.60
62583;DHT22;48641;51.676;5.808;2023-07-31T14:30:54;22.40;60.70
62583;DHT22;48641;51.676;5.808;2023-07-31T14:33:20;22.40;60.80
62583;DHT22;48641;51.676;5.808;2023-07-31T14:35:45;22.40;60.90
62583;DHT22;48641;51.676;5.808;2023-07-31T14:38:11;22.40;60.80
62583;DHT22;48641;51.676;5.808;2023-07-31T14:40:37;22.40;61.00
62583;DHT22;48641;51.676;5.808;2023-07-31T14:43:04;22.40;61.00
62583;DHT22;48641;51.676;5.808;2023-07-31T14:45:47;22.40;61.20
62583;DHT22;48641;51.676;5.808;2023-07-31T14:48:14;22.40;61.10
62583;DHT22;48641;51.676;5.808;2023-07-31T14:50:39;22.40;61.10
62583;DHT22;48641;51.676;5.808;2023-07-31T14:53:05;22.40;61.00
62583;DHT22;48641;51.676;5.808;2023-07-31T14:55:31;22.40;61.00
62583;DHT22;48641;51.676;5.808;2023-07-31T14:57:56;22.40;60.80
62583;DHT22;48641;51.676;5.808;2023-07-31T15:00:22;22.50;60.90
62583;DHT22;48641;51.676;5.808;2023-07-31T15:02:49;22.40;60.80
62583;DHT22;48641;51.676;5.808;2023-07-31T15:05:15;22.40;60.70
62583;DHT22;48641;51.676;5.808;2023-07-31T15:07:41;22.40;60.70
62583;DHT22;48641;51.676;5.808;2023-07-31T15:10:07;22.40;60.60
62583;DHT22;48641;51.676;5.808;2023-07-31T15:12:33;22.40;60.80
62583;DHT22;48641;51.676;5.808;2023-07-31T15:14:58;22.40;60.90
62583;DHT22;48641;51.676;5.808;2023-07-31T15:17:24;22.40;60.90
62583;DHT22;48641;51.676;5.808;2023-07-31T15:19:50;22.40;60.90
62583;DHT22;48641;51.676;5.808;2023-07-31T15:22:15;22.40;61.10
62583;DHT22;48641;51.676;5.808;2023-07-31T15:24:43;22.40;61.20
62583;DHT22;48641;51.676;5.808;2023-07-31T15:27:09;22.40;61.20
62583;DHT22;48641;51.676;5.808;2023-07-31T15:29:35;22.40;61.30
62583;DHT22;48641;51.676;5.808;2023-07-31T15:32:04;22.40;61.20
62583;DHT22;48641;51.676;5.808;2023-07-31T15:34:30;22.40;61.20
62583;DHT22;48641;51.676;5.808;2023-07-31T15:36:55;22.40;61.00
62583;DHT22;48641;51.676;5.808;2023-07-31T15:39:21;22.40;60.90
62583;DHT22;48641;51.676;5.808;2023-07-31T15:41:46;22.40;60.90